sensor_id;sensor_type;location;lat;lon;timestamp;P1;durP1;ratioP1;P2;durP2;ratioP2
16689;SDS011;8458;52.220;9.884;2023-07-24T00:01:32;1.00;;;0.90;;
16689;SDS011;8458;52.220;9.884;2023-07-24T00:03:59;0.60;;;0.60;;
16689;SDS011;8458;52.220;9.884;2023-07-24T00:06:25;0.60;;;0.60;;
16689;SDS011;8458;52.220;9.884;2023-07-24T00:08:53;0.70;;;0.70;;
16689;SDS011;8458;52.220;9.884;2023-07-24T00:11:20;0.70;;;0.70;;
16689;SDS011;8458;52.220;9.884;2023-07-24T00:13:46;0.87;;;0.60;;
16689;SDS011;8458;52.220;9.884;2023-07-24T00:16:12;0.70;;;0.70;;
16689;SDS011;8458;52.220;9.884;2023-07-24T00:18:39;0.70;;;0.70;;
16689;SDS011;8458;52.220;9.884;2023-07-24T00:21:06;0.70;;;0.70;;
16689;SDS011;8458;52.220;9.884;2023-07-24T00:23:32;1.27;;;0.83;;
16689;SDS011;8458;52.220;9.884;2023-07-24T00:26:00;0.80;;;0.70;;
16689;SDS011;8458;52.220;9.884;2023-07-24T00:28:26;0.57;;;0.57;;
16689;SDS011;8458;52.220;9.884;2023-07-24T00:30:53;0.70;;;0.70;;
16689;SDS011;8458;52.220;9.884;2023-07-24T00:33:21;0.70;;;0.70;;
16689;SDS011;8458;52.220;9.884;2023-07-24T00:35:47;0.70;;;0.70;;
16689;SDS011;8458;52.220;9.884;2023-07-24T00:38:14;0.90;;;0.90;;
16689;SDS011;8458;52.220;9.884;2023-07-24T00:40:40;0.70;;;0.70;;
16689;SDS011;8458;52.220;9.884;2023-07-24T00:43:08;0.60;;;0.60;;
16689;SDS011;8458;52.220;9.884;2023-07-24T00:45:34;0.70;;;0.70;;
16689;SDS011;8458;52.220;9.884;2023-07-24T00:48:01;0.70;;;0.70;;
16689;SDS011;8458;52.220;9.884;2023-07-24T00:50:28;0.77;;;0.77;;
16689;SDS011;8458;52.220;9.884;2023-07-24T00:52:55;0.70;;;0.70;;
16689;SDS011;8458;52.220;9.884;2023-07-24T00:55:22;0.80;;;0.80;;
16689;SDS011;8458;52.220;9.884;2023-07-24T00:57:49;0.70;;;0.70;;
16689;SDS011;8458;52.220;9.884;2023-07-24T01:00:17;0.70;;;0.70;;
16689;SDS011;8458;52.220;9.884;2023-07-24T01:02:43;0.70;;;0.70;;
16689;SDS011;8458;52.220;9.884;2023-07-24T01:05:10;0.80;;;0.70;;
16689;SDS011;8458;52.220;9.884;2023-07-24T01:07:39;0.67;;;0.67;;
16689;SDS011;8458;52.220;9.884;2023-07-24T01:10:06;0.80;;;0.80;;
16689;SDS011;8458;52.220;9.884;2023-07-24T01:12:35;0.80;;;0.80;;
16689;SDS011;8458;52.220;9.884;2023-07-24T01:15:06;0.80;;;0.80;;
16689;SDS011;8458;52.220;9.884;2023-07-24T01:17:39;0.90;;;0.70;;
16689;SDS011;8458;52.220;9.884;2023-07-24T01:20:12;1.10;;;0.97;;
16689;SDS011;8458;52.220;9.884;2023-07-24T01:22:45;0.80;;;0.80;;
16689;SDS011;8458;52.220;9.884;2023-07-24T01:25:23;0.90;;;0.90;;
16689;SDS011;8458;52.220;9.884;2023-07-24T01:27:57;0.93;;;0.80;;
16689;SDS011;8458;52.220;9.884;2023-07-24T01:30:24;0.80;;;0.80;;
16689;SDS011;8458;52.220;9.884;2023-07-24T01:32:50;1.07;;;0.87;;
16689;SDS011;8458;52.220;9.884;2023-07-24T01:35:17;0.73;;;0.73;;
16689;SDS011;8458;52.220;9.884;2023-07-24T01:37:43;0.80;;;0.80;;
16689;SDS011;8458;52.220;9.884;2023-07-24T01:40:12;0.90;;;0.90;;
16689;SDS011;8458;52.220;9.884;2023-07-24T01:42:41;0.90;;;0.90;;
16689;SDS011;8458;52.220;9.884;2023-07-24T01:45:09;1.00;;;1.00;;
16689;SDS011;8458;52.220;9.884;2023-07-24T01:47:38;1.13;;;1.00;;
16689;SDS011;8458;52.220;9.884;2023-07-24T01:50:05;0.87;;;0.87;;
16689;SDS011;8458;52.220;9.884;2023-07-24T01:52:32;1.57;;;1.00;;
16689;SDS011;8458;52.220;9.884;2023-07-24T01:54:58;1.00;;;1.00;;
16689;SDS011;8458;52.220;9.884;2023-07-24T01:57:25;0.90;;;0.90;;
16689;SDS011;8458;52.220;9.884;2023-07-24T01:59:51;0.83;;;0.83;;
16689;SDS011;8458;52.220;9.884;2023-07-24T02:02:19;0.80;;;0.80;;
16689;SDS011;8458;52.220;9.884;2023-07-24T02:04:46;1.00;;;1.00;;
16689;SDS011;8458;52.220;9.884;2023-07-24T02:07:12;1.60;;;1.20;;
16689;SDS011;8458;52.220;9.884;2023-07-24T02:09:39;1.00;;;1.00;;
16689;SDS011;8458;52.220;9.884;2023-07-24T02:12:06;1.13;;;1.13;;
16689;SDS011;8458;52.220;9.884;2023-07-24T02:14:32;1.10;;;1.10;;
16689;SDS011;8458;52.220;9.884;2023-07-24T02:16:59;1.10;;;1.00;;
16689;SDS011;8458;52.220;9.884;2023-07-24T02:19:26;1.10;;;1.10;;
16689;SDS011;8458;52.220;9.884;2023-07-24T02:21:53;1.17;;;1.07;;
16689;SDS011;8458;52.220;9.884;2023-07-24T02:24:19;0.87;;;0.87;;
16689;SDS011;8458;52.220;9.884;2023-07-24T02:26:46;1.30;;;1.20;;
16689;SDS011;8458;52.220;9.884;2023-07-24T02:29:12;1.00;;;1.00;;
16689;SDS011;8458;52.220;9.884;2023-07-24T02:31:39;1.13;;;1.13;;
16689;SDS011;8458;52.220;9.884;2023-07-24T02:34:05;1.10;;;1.00;;
16689;SDS011;8458;52.220;9.884;2023-07-24T02:36:33;1.20;;;1.10;;
16689;SDS011;8458;52.220;9.884;2023-07-24T02:38:59;1.00;;;1.00;;
16689;SDS011;8458;52.220;9.884;2023-07-24T02:41:26;1.00;;;1.00;;
16689;SDS011;8458;52.220;9.884;2023-07-24T02:43:52;0.90;;;0.90;;
16689;SDS011;8458;52.220;9.884;2023-07-24T02:46:19;1.03;;;1.00;;
16689;SDS011;8458;52.220;9.884;2023-07-24T02:48:45;1.10;;;1.00;;
16689;SDS011;8458;52.220;9.884;2023-07-24T02:51:12;1.00;;;1.00;;
16689;SDS011;8458;52.220;9.884;2023-07-24T02:53:39;1.00;;;1.00;;
16689;SDS011;8458;52.220;9.884;2023-07-24T02:56:06;1.00;;;1.00;;
16689;SDS011;8458;52.220;9.884;2023-07-24T02:58:32;1.00;;;1.00;;
16689;SDS011;8458;52.220;9.884;2023-07-24T03:01:02;1.30;;;1.20;;
16689;SDS011;8458;52.220;9.884;2023-07-24T03:03:29;0.80;;;0.80;;
16689;SDS011;8458;52.220;9.884;2023-07-24T03:05:56;0.90;;;0.90;;
16689;SDS011;8458;52.220;9.884;2023-07-24T03:08:22;1.30;;;1.20;;
16689;SDS011;8458;52.220;9.884;2023-07-24T03:10:50;0.80;;;0.80;;
16689;SDS011;8458;52.220;9.884;2023-07-24T03:13:17;1.10;;;0.97;;
16689;SDS011;8458;52.220;9.884;2023-07-24T03:15:50;1.17;;;1.00;;
16689;SDS011;8458;52.220;9.884;2023-07-24T03:18:18;0.90;;;0.90;;
16689;SDS011;8458;52.220;9.884;2023-07-24T03:20:44;1.00;;;1.00;;
16689;SDS011;8458;52.220;9.884;2023-07-24T03:23:10;1.23;;;1.00;;
16689;SDS011;8458;52.220;9.884;2023-07-24T03:25:37;1.10;;;1.10;;
16689;SDS011;8458;52.220;9.884;2023-07-24T03:28:05;1.20;;;1.20;;
16689;SDS011;8458;52.220;9.884;2023-07-24T03:30:31;0.80;;;0.80;;
16689;SDS011;8458;52.220;9.884;2023-07-24T03:32:58;1.10;;;0.90;;
16689;SDS011;8458;52.220;9.884;2023-07-24T03:35:26;1.50;;;1.07;;
16689;SDS011;8458;52.220;9.884;2023-07-24T03:37:52;1.13;;;0.93;;
16689;SDS011;8458;52.220;9.884;2023-07-24T03:40:18;0.93;;;0.93;;
16689;SDS011;8458;52.220;9.884;2023-07-24T03:42:45;0.87;;;0.87;;
16689;SDS011;8458;52.220;9.884;2023-07-24T03:45:13;1.10;;;1.00;;
16689;SDS011;8458;52.220;9.884;2023-07-24T03:47:39;1.03;;;1.03;;
16689;SDS011;8458;52.220;9.884;2023-07-24T03:50:06;1.00;;;0.90;;
16689;SDS011;8458;52.220;9.884;2023-07-24T03:52:33;0.80;;;0.80;;
16689;SDS011;8458;52.220;9.884;2023-07-24T03:54:59;0.97;;;0.97;;
16689;SDS011;8458;52.220;9.884;2023-07-24T03:57:26;1.07;;;1.00;;
16689;SDS011;8458;52.220;9.884;2023-07-24T03:59:52;1.10;;;1.00;;
16689;SDS011;8458;52.220;9.884;2023-07-24T04:02:20;1.10;;;1.00;;
16689;SDS011;8458;52.220;9.884;2023-07-24T04:04:47;1.30;;;1.13;;
16689;SDS011;8458;52.220;9.884;2023-07-24T04:07:13;1.33;;;1.10;;
16689;SDS011;8458;52.220;9.884;2023-07-24T04:09:40;1.23;;;1.13;;
16689;SDS011;8458;52.220;9.884;2023-07-24T04:12:06;1.10;;;1.10;;
16689;SDS011;8458;52.220;9.884;2023-07-24T04:14:33;1.13;;;1.00;;
16689;SDS011;8458;52.220;9.884;2023-07-24T04:17:00;1.00;;;1.00;;
16689;SDS011;8458;52.220;9.884;2023-07-24T04:19:28;1.47;;;1.20;;
16689;SDS011;8458;52.220;9.884;2023-07-24T04:21:54;1.33;;;1.00;;
16689;SDS011;8458;52.220;9.884;2023-07-24T04:24:21;1.10;;;1.10;;
16689;SDS011;8458;52.220;9.884;2023-07-24T04:26:47;1.60;;;1.20;;
16689;SDS011;8458;52.220;9.884;2023-07-24T04:29:13;1.30;;;1.20;;
16689;SDS011;8458;52.220;9.884;2023-07-24T04:31:40;1.13;;;1.03;;
16689;SDS011;8458;52.220;9.884;2023-07-24T04:34:06;1.23;;;1.13;;
16689;SDS011;8458;52.220;9.884;2023-07-24T04:36:34;1.33;;;1.23;;
16689;SDS011;8458;52.220;9.884;2023-07-24T04:39:00;1.60;;;1.50;;
16689;SDS011;8458;52.220;9.884;2023-07-24T04:41:27;1.87;;;1.30;;
16689;SDS011;8458;52.220;9.884;2023-07-24T04:43:53;1.00;;;1.00;;
16689;SDS011;8458;52.220;9.884;2023-07-24T04:46:20;1.17;;;1.00;;
16689;SDS011;8458;52.220;9.884;2023-07-24T04:48:46;1.10;;;1.00;;
16689;SDS011;8458;52.220;9.884;2023-07-24T04:51:13;1.00;;;1.00;;
16689;SDS011;8458;52.220;9.884;2023-07-24T04:53:40;2.00;;;1.00;;
16689;SDS011;8458;52.220;9.884;2023-07-24T04:56:07;1.23;;;0.93;;
16689;SDS011;8458;52.220;9.884;2023-07-24T04:58:33;1.47;;;1.20;;
16689;SDS011;8458;52.220;9.884;2023-07-24T05:01:02;1.23;;;0.97;;
16689;SDS011;8458;52.220;9.884;2023-07-24T05:03:29;1.27;;;1.17;;
16689;SDS011;8458;52.220;9.884;2023-07-24T05:05:56;1.10;;;1.00;;
16689;SDS011;8458;52.220;9.884;2023-07-24T05:08:23;1.00;;;1.00;;
16689;SDS011;8458;52.220;9.884;2023-07-24T05:10:54;1.20;;;1.10;;
16689;SDS011;8458;52.220;9.884;2023-07-24T05:13:21;1.13;;;1.13;;
16689;SDS011;8458;52.220;9.884;2023-07-24T05:15:47;1.10;;;1.00;;
16689;SDS011;8458;52.220;9.884;2023-07-24T05:18:14;0.90;;;0.90;;
16689;SDS011;8458;52.220;9.884;2023-07-24T05:20:42;1.30;;;1.03;;
16689;SDS011;8458;52.220;9.884;2023-07-24T05:23:09;0.90;;;0.90;;
16689;SDS011;8458;52.220;9.884;2023-07-24T05:25:35;0.93;;;0.90;;
16689;SDS011;8458;52.220;9.884;2023-07-24T05:28:03;1.20;;;1.10;;
16689;SDS011;8458;52.220;9.884;2023-07-24T05:30:29;1.07;;;1.00;;
16689;SDS011;8458;52.220;9.884;2023-07-24T05:32:56;1.13;;;1.07;;
16689;SDS011;8458;52.220;9.884;2023-07-24T05:35:22;1.23;;;1.13;;
16689;SDS011;8458;52.220;9.884;2023-07-24T05:37:49;1.33;;;1.10;;
16689;SDS011;8458;52.220;9.884;2023-07-24T05:40:15;1.33;;;1.10;;
16689;SDS011;8458;52.220;9.884;2023-07-24T05:42:42;1.47;;;1.20;;
16689;SDS011;8458;52.220;9.884;2023-07-24T05:45:10;1.80;;;1.27;;
16689;SDS011;8458;52.220;9.884;2023-07-24T05:47:37;2.00;;;1.30;;
16689;SDS011;8458;52.220;9.884;2023-07-24T05:50:03;1.10;;;1.10;;
16689;SDS011;8458;52.220;9.884;2023-07-24T05:52:31;2.30;;;1.20;;
16689;SDS011;8458;52.220;9.884;2023-07-24T05:54:57;1.23;;;1.17;;
16689;SDS011;8458;52.220;9.884;2023-07-24T05:57:23;1.30;;;1.00;;
16689;SDS011;8458;52.220;9.884;2023-07-24T05:59:50;1.40;;;1.30;;
16689;SDS011;8458;52.220;9.884;2023-07-24T06:02:18;1.60;;;1.23;;
16689;SDS011;8458;52.220;9.884;2023-07-24T06:04:44;1.77;;;1.30;;
16689;SDS011;8458;52.220;9.884;2023-07-24T06:07:11;1.40;;;1.30;;
16689;SDS011;8458;52.220;9.884;2023-07-24T06:09:38;1.37;;;1.27;;
16689;SDS011;8458;52.220;9.884;2023-07-24T06:12:04;1.37;;;1.13;;
16689;SDS011;8458;52.220;9.884;2023-07-24T06:14:31;1.67;;;1.20;;
16689;SDS011;8458;52.220;9.884;2023-07-24T06:16:58;1.50;;;1.40;;
16689;SDS011;8458;52.220;9.884;2023-07-24T06:19:25;1.40;;;1.30;;
16689;SDS011;8458;52.220;9.884;2023-07-24T06:21:52;1.60;;;1.50;;
16689;SDS011;8458;52.220;9.884;2023-07-24T06:24:18;1.47;;;1.37;;
16689;SDS011;8458;52.220;9.884;2023-07-24T06:26:45;1.70;;;1.60;;
16689;SDS011;8458;52.220;9.884;2023-07-24T06:29:12;1.70;;;1.60;;
16689;SDS011;8458;52.220;9.884;2023-07-24T06:31:39;1.50;;;1.40;;
16689;SDS011;8458;52.220;9.884;2023-07-24T06:34:06;1.50;;;1.40;;
16689;SDS011;8458;52.220;9.884;2023-07-24T06:36:33;1.67;;;1.57;;
16689;SDS011;8458;52.220;9.884;2023-07-24T06:39:00;1.70;;;1.60;;
16689;SDS011;8458;52.220;9.884;2023-07-24T06:41:27;1.70;;;1.60;;
16689;SDS011;8458;52.220;9.884;2023-07-24T06:43:53;1.53;;;1.40;;
16689;SDS011;8458;52.220;9.884;2023-07-24T06:46:20;1.50;;;1.40;;
16689;SDS011;8458;52.220;9.884;2023-07-24T06:48:46;1.60;;;1.50;;
16689;SDS011;8458;52.220;9.884;2023-07-24T06:51:13;1.53;;;1.43;;
16689;SDS011;8458;52.220;9.884;2023-07-24T06:53:41;1.60;;;1.50;;
16689;SDS011;8458;52.220;9.884;2023-07-24T06:56:07;4.27;;;1.57;;
16689;SDS011;8458;52.220;9.884;2023-07-24T06:58:33;1.70;;;1.60;;
16689;SDS011;8458;52.220;9.884;2023-07-24T07:01:00;1.50;;;1.40;;
16689;SDS011;8458;52.220;9.884;2023-07-24T07:03:31;1.40;;;1.30;;
16689;SDS011;8458;52.220;9.884;2023-07-24T07:05:59;1.87;;;1.77;;
16689;SDS011;8458;52.220;9.884;2023-07-24T07:08:27;1.80;;;1.70;;
16689;SDS011;8458;52.220;9.884;2023-07-24T07:10:56;2.80;;;1.63;;
16689;SDS011;8458;52.220;9.884;2023-07-24T07:13:22;1.80;;;1.70;;
16689;SDS011;8458;52.220;9.884;2023-07-24T07:15:49;2.30;;;1.70;;
16689;SDS011;8458;52.220;9.884;2023-07-24T07:18:15;2.37;;;1.50;;
16689;SDS011;8458;52.220;9.884;2023-07-24T07:20:44;1.57;;;1.47;;
16689;SDS011;8458;52.220;9.884;2023-07-24T07:23:11;1.70;;;1.60;;
16689;SDS011;8458;52.220;9.884;2023-07-24T07:25:37;1.70;;;1.60;;
16689;SDS011;8458;52.220;9.884;2023-07-24T07:28:05;2.10;;;1.70;;
16689;SDS011;8458;52.220;9.884;2023-07-24T07:30:31;2.03;;;1.63;;
16689;SDS011;8458;52.220;9.884;2023-07-24T07:32:58;2.00;;;1.90;;
16689;SDS011;8458;52.220;9.884;2023-07-24T07:35:24;1.50;;;1.40;;
16689;SDS011;8458;52.220;9.884;2023-07-24T07:37:51;1.70;;;1.60;;
16689;SDS011;8458;52.220;9.884;2023-07-24T07:40:17;1.97;;;1.87;;
16689;SDS011;8458;52.220;9.884;2023-07-24T07:42:44;1.60;;;1.43;;
16689;SDS011;8458;52.220;9.884;2023-07-24T07:45:12;1.60;;;1.50;;
16689;SDS011;8458;52.220;9.884;2023-07-24T07:47:38;1.63;;;1.53;;
16689;SDS011;8458;52.220;9.884;2023-07-24T07:50:05;1.83;;;1.73;;
16689;SDS011;8458;52.220;9.884;2023-07-24T07:52:32;2.07;;;1.87;;
16689;SDS011;8458;52.220;9.884;2023-07-24T07:54:58;1.60;;;1.50;;
16689;SDS011;8458;52.220;9.884;2023-07-24T07:57:25;2.00;;;1.80;;
16689;SDS011;8458;52.220;9.884;2023-07-24T07:59:51;2.10;;;1.70;;
16689;SDS011;8458;52.220;9.884;2023-07-24T08:02:19;1.90;;;1.70;;
16689;SDS011;8458;52.220;9.884;2023-07-24T08:04:45;2.53;;;1.80;;
16689;SDS011;8458;52.220;9.884;2023-07-24T08:07:12;2.27;;;2.13;;
16689;SDS011;8458;52.220;9.884;2023-07-24T08:09:38;2.27;;;2.13;;
16689;SDS011;8458;52.220;9.884;2023-07-24T08:12:05;2.00;;;1.90;;
16689;SDS011;8458;52.220;9.884;2023-07-24T08:14:32;2.50;;;2.30;;
16689;SDS011;8458;52.220;9.884;2023-07-24T08:16:59;2.60;;;2.40;;
16689;SDS011;8458;52.220;9.884;2023-07-24T08:19:28;2.50;;;2.30;;
16689;SDS011;8458;52.220;9.884;2023-07-24T08:21:55;2.07;;;1.97;;
16689;SDS011;8458;52.220;9.884;2023-07-24T08:24:22;1.80;;;1.70;;
16689;SDS011;8458;52.220;9.884;2023-07-24T08:26:48;2.43;;;1.70;;
16689;SDS011;8458;52.220;9.884;2023-07-24T08:29:14;2.30;;;2.10;;
16689;SDS011;8458;52.220;9.884;2023-07-24T08:31:41;2.33;;;2.13;;
16689;SDS011;8458;52.220;9.884;2023-07-24T08:34:07;2.20;;;2.00;;
16689;SDS011;8458;52.220;9.884;2023-07-24T08:36:35;1.93;;;1.70;;
16689;SDS011;8458;52.220;9.884;2023-07-24T08:39:02;1.90;;;1.80;;
16689;SDS011;8458;52.220;9.884;2023-07-24T08:41:29;2.07;;;1.87;;
16689;SDS011;8458;52.220;9.884;2023-07-24T08:43:57;2.13;;;1.93;;
16689;SDS011;8458;52.220;9.884;2023-07-24T08:46:24;1.90;;;1.80;;
16689;SDS011;8458;52.220;9.884;2023-07-24T08:48:51;2.20;;;2.00;;
16689;SDS011;8458;52.220;9.884;2023-07-24T08:51:20;3.23;;;2.93;;
16689;SDS011;8458;52.220;9.884;2023-07-24T08:53:48;1.97;;;1.87;;
16689;SDS011;8458;52.220;9.884;2023-07-24T08:56:15;1.90;;;1.80;;
16689;SDS011;8458;52.220;9.884;2023-07-24T08:58:42;2.23;;;2.13;;
16689;SDS011;8458;52.220;9.884;2023-07-24T09:01:08;2.63;;;2.43;;
16689;SDS011;8458;52.220;9.884;2023-07-24T09:03:35;2.20;;;2.00;;
16689;SDS011;8458;52.220;9.884;2023-07-24T09:06:02;2.50;;;2.10;;
16689;SDS011;8458;52.220;9.884;2023-07-24T09:08:32;1.80;;;1.70;;
16689;SDS011;8458;52.220;9.884;2023-07-24T09:11:00;2.17;;;2.07;;
16689;SDS011;8458;52.220;9.884;2023-07-24T09:13:28;1.70;;;1.60;;
16689;SDS011;8458;52.220;9.884;2023-07-24T09:15:55;1.70;;;1.60;;
16689;SDS011;8458;52.220;9.884;2023-07-24T09:18:22;1.70;;;1.60;;
16689;SDS011;8458;52.220;9.884;2023-07-24T09:20:48;2.03;;;1.90;;
16689;SDS011;8458;52.220;9.884;2023-07-24T09:23:15;1.87;;;1.77;;
16689;SDS011;8458;52.220;9.884;2023-07-24T09:25:52;1.60;;;1.50;;
16689;SDS011;8458;52.220;9.884;2023-07-24T09:28:19;2.00;;;1.83;;
16689;SDS011;8458;52.220;9.884;2023-07-24T09:30:51;2.17;;;2.07;;
16689;SDS011;8458;52.220;9.884;2023-07-24T09:33:18;2.00;;;1.90;;
16689;SDS011;8458;52.220;9.884;2023-07-24T09:35:45;2.13;;;2.03;;
16689;SDS011;8458;52.220;9.884;2023-07-24T09:38:11;2.00;;;1.90;;
16689;SDS011;8458;52.220;9.884;2023-07-24T09:40:38;2.10;;;1.90;;
16689;SDS011;8458;52.220;9.884;2023-07-24T09:43:16;2.60;;;2.50;;
16689;SDS011;8458;52.220;9.884;2023-07-24T09:45:45;2.40;;;2.03;;
16689;SDS011;8458;52.220;9.884;2023-07-24T09:48:12;1.83;;;1.73;;
16689;SDS011;8458;52.220;9.884;2023-07-24T09:50:40;1.90;;;1.80;;
16689;SDS011;8458;52.220;9.884;2023-07-24T09:53:09;2.10;;;2.00;;
16689;SDS011;8458;52.220;9.884;2023-07-24T09:55:42;2.20;;;2.00;;
16689;SDS011;8458;52.220;9.884;2023-07-24T09:58:13;1.70;;;1.60;;
16689;SDS011;8458;52.220;9.884;2023-07-24T10:00:41;2.20;;;2.00;;
16689;SDS011;8458;52.220;9.884;2023-07-24T10:03:10;1.70;;;1.60;;
16689;SDS011;8458;52.220;9.884;2023-07-24T10:05:37;1.80;;;1.70;;
16689;SDS011;8458;52.220;9.884;2023-07-24T10:08:04;1.93;;;1.83;;
16689;SDS011;8458;52.220;9.884;2023-07-24T10:10:31;2.33;;;2.10;;
16689;SDS011;8458;52.220;9.884;2023-07-24T10:12:58;1.80;;;1.70;;
16689;SDS011;8458;52.220;9.884;2023-07-24T10:15:24;1.70;;;1.60;;
16689;SDS011;8458;52.220;9.884;2023-07-24T10:18:00;1.67;;;1.57;;
16689;SDS011;8458;52.220;9.884;2023-07-24T10:20:33;1.77;;;1.67;;
16689;SDS011;8458;52.220;9.884;2023-07-24T10:23:01;1.80;;;1.70;;
16689;SDS011;8458;52.220;9.884;2023-07-24T10:25:29;1.60;;;1.50;;
16689;SDS011;8458;52.220;9.884;2023-07-24T10:28:00;1.57;;;1.47;;
16689;SDS011;8458;52.220;9.884;2023-07-24T10:30:28;1.60;;;1.50;;
16689;SDS011;8458;52.220;9.884;2023-07-24T10:33:02;1.73;;;1.63;;
16689;SDS011;8458;52.220;9.884;2023-07-24T10:35:37;1.80;;;1.70;;
16689;SDS011;8458;52.220;9.884;2023-07-24T10:38:07;1.83;;;1.73;;
16689;SDS011;8458;52.220;9.884;2023-07-24T10:40:34;4.30;;;1.60;;
16689;SDS011;8458;52.220;9.884;2023-07-24T10:43:01;1.70;;;1.60;;
16689;SDS011;8458;52.220;9.884;2023-07-24T10:45:41;1.60;;;1.50;;
16689;SDS011;8458;52.220;9.884;2023-07-24T10:48:08;1.57;;;1.47;;
16689;SDS011;8458;52.220;9.884;2023-07-24T10:50:38;2.07;;;1.90;;
16689;SDS011;8458;52.220;9.884;2023-07-24T10:53:06;1.57;;;1.50;;
16689;SDS011;8458;52.220;9.884;2023-07-24T10:55:32;2.20;;;2.10;;
16689;SDS011;8458;52.220;9.884;2023-07-24T10:57:58;2.10;;;2.00;;
16689;SDS011;8458;52.220;9.884;2023-07-24T11:00:25;2.00;;;1.90;;
16689;SDS011;8458;52.220;9.884;2023-07-24T11:02:53;2.37;;;2.17;;
16689;SDS011;8458;52.220;9.884;2023-07-24T11:05:20;2.00;;;1.90;;
16689;SDS011;8458;52.220;9.884;2023-07-24T11:07:48;2.07;;;1.97;;
16689;SDS011;8458;52.220;9.884;2023-07-24T11:10:15;1.90;;;1.80;;
16689;SDS011;8458;52.220;9.884;2023-07-24T11:12:42;2.13;;;1.93;;
16689;SDS011;8458;52.220;9.884;2023-07-24T11:15:09;2.50;;;2.33;;
16689;SDS011;8458;52.220;9.884;2023-07-24T11:17:37;2.33;;;2.20;;
16689;SDS011;8458;52.220;9.884;2023-07-24T11:20:08;2.20;;;2.10;;
16689;SDS011;8458;52.220;9.884;2023-07-24T11:22:37;2.23;;;2.13;;
16689;SDS011;8458;52.220;9.884;2023-07-24T11:25:07;2.17;;;2.07;;
16689;SDS011;8458;52.220;9.884;2023-07-24T11:27:37;2.70;;;1.93;;
16689;SDS011;8458;52.220;9.884;2023-07-24T11:30:06;2.17;;;2.07;;
16689;SDS011;8458;52.220;9.884;2023-07-24T11:32:33;2.43;;;2.33;;
16689;SDS011;8458;52.220;9.884;2023-07-24T11:35:00;2.33;;;2.13;;
16689;SDS011;8458;52.220;9.884;2023-07-24T11:37:27;2.10;;;2.00;;
16689;SDS011;8458;52.220;9.884;2023-07-24T11:39:55;2.40;;;2.20;;
16689;SDS011;8458;52.220;9.884;2023-07-24T11:42:25;2.30;;;2.20;;
16689;SDS011;8458;52.220;9.884;2023-07-24T11:44:52;2.23;;;2.13;;
16689;SDS011;8458;52.220;9.884;2023-07-24T11:47:19;2.28;;;2.17;;
16689;SDS011;8458;52.220;9.884;2023-07-24T11:49:55;2.23;;;2.13;;
16689;SDS011;8458;52.220;9.884;2023-07-24T11:52:22;2.08;;;1.98;;
16689;SDS011;8458;52.220;9.884;2023-07-24T11:54:55;2.00;;;1.90;;
16689;SDS011;8458;52.220;9.884;2023-07-24T11:57:27;2.50;;;2.40;;
16689;SDS011;8458;52.220;9.884;2023-07-24T11:59:54;2.10;;;2.00;;
16689;SDS011;8458;52.220;9.884;2023-07-24T12:02:22;2.13;;;2.03;;
16689;SDS011;8458;52.220;9.884;2023-07-24T12:04:53;2.40;;;2.30;;
16689;SDS011;8458;52.220;9.884;2023-07-24T12:07:22;7.50;;;2.00;;
16689;SDS011;8458;52.220;9.884;2023-07-24T12:09:50;2.35;;;2.13;;
16689;SDS011;8458;52.220;9.884;2023-07-24T12:12:18;2.28;;;2.17;;
16689;SDS011;8458;52.220;9.884;2023-07-24T12:14:46;1.90;;;1.80;;
16689;SDS011;8458;52.220;9.884;2023-07-24T12:17:17;2.00;;;1.90;;
16689;SDS011;8458;52.220;9.884;2023-07-24T12:19:46;2.10;;;2.00;;
16689;SDS011;8458;52.220;9.884;2023-07-24T12:22:13;2.30;;;2.20;;
16689;SDS011;8458;52.220;9.884;2023-07-24T12:24:40;2.30;;;2.20;;
16689;SDS011;8458;52.220;9.884;2023-07-24T12:27:06;2.80;;;2.70;;
16689;SDS011;8458;52.220;9.884;2023-07-24T12:29:33;3.42;;;3.13;;
16689;SDS011;8458;52.220;9.884;2023-07-24T12:32:00;3.10;;;3.00;;
16689;SDS011;8458;52.220;9.884;2023-07-24T12:34:27;3.30;;;2.85;;
16689;SDS011;8458;52.220;9.884;2023-07-24T12:36:53;3.30;;;3.10;;
16689;SDS011;8458;52.220;9.884;2023-07-24T12:39:20;2.90;;;2.70;;
16689;SDS011;8458;52.220;9.884;2023-07-24T12:41:46;3.00;;;2.90;;
16689;SDS011;8458;52.220;9.884;2023-07-24T12:44:13;2.63;;;2.53;;
16689;SDS011;8458;52.220;9.884;2023-07-24T12:46:39;4.00;;;2.50;;
16689;SDS011;8458;52.220;9.884;2023-07-24T12:49:07;2.87;;;2.67;;
16689;SDS011;8458;52.220;9.884;2023-07-24T12:51:33;2.50;;;2.40;;
16689;SDS011;8458;52.220;9.884;2023-07-24T12:54:00;2.80;;;2.70;;
16689;SDS011;8458;52.220;9.884;2023-07-24T12:56:26;2.70;;;2.60;;
16689;SDS011;8458;52.220;9.884;2023-07-24T12:58:53;2.47;;;2.37;;
16689;SDS011;8458;52.220;9.884;2023-07-24T13:01:20;2.13;;;2.03;;
16689;SDS011;8458;52.220;9.884;2023-07-24T13:03:46;2.20;;;2.03;;
16689;SDS011;8458;52.220;9.884;2023-07-24T13:06:14;2.60;;;2.50;;
16689;SDS011;8458;52.220;9.884;2023-07-24T13:08:41;2.40;;;2.30;;
16689;SDS011;8458;52.220;9.884;2023-07-24T13:11:07;2.40;;;2.30;;
16689;SDS011;8458;52.220;9.884;2023-07-24T13:13:34;2.10;;;2.00;;
16689;SDS011;8458;52.220;9.884;2023-07-24T13:16:01;2.13;;;2.03;;
16689;SDS011;8458;52.220;9.884;2023-07-24T13:18:27;2.60;;;2.40;;
16689;SDS011;8458;52.220;9.884;2023-07-24T13:20:55;2.07;;;1.97;;
16689;SDS011;8458;52.220;9.884;2023-07-24T13:23:23;2.20;;;2.10;;
16689;SDS011;8458;52.220;9.884;2023-07-24T13:25:49;2.30;;;2.10;;
16689;SDS011;8458;52.220;9.884;2023-07-24T13:28:16;2.13;;;2.03;;
16689;SDS011;8458;52.220;9.884;2023-07-24T13:30:43;2.30;;;2.20;;
16689;SDS011;8458;52.220;9.884;2023-07-24T13:33:10;2.10;;;2.00;;
16689;SDS011;8458;52.220;9.884;2023-07-24T13:35:36;2.30;;;1.93;;
16689;SDS011;8458;52.220;9.884;2023-07-24T13:38:03;2.07;;;1.93;;
16689;SDS011;8458;52.220;9.884;2023-07-24T13:40:31;1.93;;;1.83;;
16689;SDS011;8458;52.220;9.884;2023-07-24T13:42:57;2.47;;;2.37;;
16689;SDS011;8458;52.220;9.884;2023-07-24T13:45:24;2.30;;;2.20;;
16689;SDS011;8458;52.220;9.884;2023-07-24T13:47:50;2.20;;;2.10;;
16689;SDS011;8458;52.220;9.884;2023-07-24T13:50:17;2.47;;;2.27;;
16689;SDS011;8458;52.220;9.884;2023-07-24T13:52:43;3.00;;;2.80;;
16689;SDS011;8458;52.220;9.884;2023-07-24T13:55:10;2.30;;;2.10;;
16689;SDS011;8458;52.220;9.884;2023-07-24T13:57:37;3.77;;;3.20;;
16689;SDS011;8458;52.220;9.884;2023-07-24T14:00:05;2.87;;;2.67;;
16689;SDS011;8458;52.220;9.884;2023-07-24T14:02:32;2.93;;;2.83;;
16689;SDS011;8458;52.220;9.884;2023-07-24T14:04:58;2.57;;;2.43;;
16689;SDS011;8458;52.220;9.884;2023-07-24T14:07:25;3.20;;;3.00;;
16689;SDS011;8458;52.220;9.884;2023-07-24T14:09:51;2.90;;;2.70;;
16689;SDS011;8458;52.220;9.884;2023-07-24T14:12:18;2.93;;;2.73;;
16689;SDS011;8458;52.220;9.884;2023-07-24T14:14:45;2.60;;;2.40;;
16689;SDS011;8458;52.220;9.884;2023-07-24T14:17:12;2.43;;;2.33;;
16689;SDS011;8458;52.220;9.884;2023-07-24T14:19:39;2.10;;;2.00;;
16689;SDS011;8458;52.220;9.884;2023-07-24T14:22:06;4.43;;;1.77;;
16689;SDS011;8458;52.220;9.884;2023-07-24T14:24:32;1.73;;;0.90;;
16689;SDS011;8458;52.220;9.884;2023-07-24T14:26:59;2.37;;;0.87;;
16689;SDS011;8458;52.220;9.884;2023-07-24T14:29:25;1.40;;;1.00;;
16689;SDS011;8458;52.220;9.884;2023-07-24T14:31:53;1.30;;;1.00;;
16689;SDS011;8458;52.220;9.884;2023-07-24T14:34:20;3.17;;;0.97;;
16689;SDS011;8458;52.220;9.884;2023-07-24T14:36:46;1.63;;;1.00;;
16689;SDS011;8458;52.220;9.884;2023-07-24T14:39:12;1.30;;;1.20;;
16689;SDS011;8458;52.220;9.884;2023-07-24T14:41:39;1.40;;;1.30;;
16689;SDS011;8458;52.220;9.884;2023-07-24T14:44:05;1.97;;;1.23;;
16689;SDS011;8458;52.220;9.884;2023-07-24T14:46:32;2.00;;;1.53;;
16689;SDS011;8458;52.220;9.884;2023-07-24T14:49:00;1.73;;;1.30;;
16689;SDS011;8458;52.220;9.884;2023-07-24T14:51:26;2.63;;;1.40;;
16689;SDS011;8458;52.220;9.884;2023-07-24T14:53:53;1.40;;;1.30;;
16689;SDS011;8458;52.220;9.884;2023-07-24T14:56:19;2.07;;;1.37;;
16689;SDS011;8458;52.220;9.884;2023-07-24T14:58:46;1.97;;;1.60;;
16689;SDS011;8458;52.220;9.884;2023-07-24T15:01:12;1.57;;;1.37;;